sensor_id;sensor_type;location;lat;lon;timestamp;P1;durP1;ratioP1;P2;durP2;ratioP2
25846;SDS011;13676;50.168;8.568;2022-12-19T00:02:03;68.55;;;36.47;;
25846;SDS011;13676;50.168;8.568;2022-12-19T00:04:28;70.78;;;34.75;;
25846;SDS011;13676;50.168;8.568;2022-12-19T00:06:55;67.95;;;33.33;;
25846;SDS011;13676;50.168;8.568;2022-12-19T00:09:22;77.95;;;35.92;;
25846;SDS011;13676;50.168;8.568;2022-12-19T00:11:47;66.07;;;33.45;;
25846;SDS011;13676;50.168;8.568;2022-12-19T00:14:13;66.13;;;33.90;;
25846;SDS011;13676;50.168;8.568;2022-12-19T00:16:38;55.67;;;29.45;;
25846;SDS011;13676;50.168;8.568;2022-12-19T00:19:03;68.10;;;33.75;;
25846;SDS011;13676;50.168;8.568;2022-12-19T00:21:29;66.63;;;34.50;;
25846;SDS011;13676;50.168;8.568;2022-12-19T00:23:56;57.38;;;27.88;;
25846;SDS011;13676;50.168;8.568;2022-12-19T00:26:26;63.45;;;33.28;;
25846;SDS011;13676;50.168;8.568;2022-12-19T00:28:56;56.72;;;30.58;;
25846;SDS011;13676;50.168;8.568;2022-12-19T00:31:23;63.70;;;32.10;;
25846;SDS011;13676;50.168;8.568;2022-12-19T00:33:49;58.50;;;29.83;;
25846;SDS011;13676;50.168;8.568;2022-12-19T00:36:15;58.38;;;28.40;;
25846;SDS011;13676;50.168;8.568;2022-12-19T00:38:43;64.47;;;33.78;;
25846;SDS011;13676;50.168;8.568;2022-12-19T00:41:09;69.25;;;35.63;;
25846;SDS011;13676;50.168;8.568;2022-12-19T00:43:37;68.00;;;34.78;;
25846;SDS011;13676;50.168;8.568;2022-12-19T00:46:03;63.85;;;32.35;;
25846;SDS011;13676;50.168;8.568;2022-12-19T00:48:30;64.28;;;33.78;;
25846;SDS011;13676;50.168;8.568;2022-12-19T00:50:59;66.72;;;34.55;;
25846;SDS011;13676;50.168;8.568;2022-12-19T00:53:26;71.65;;;33.58;;
25846;SDS011;13676;50.168;8.568;2022-12-19T00:55:51;64.38;;;31.98;;
25846;SDS011;13676;50.168;8.568;2022-12-19T00:58:16;62.38;;;31.77;;
25846;SDS011;13676;50.168;8.568;2022-12-19T01:00:42;58.80;;;30.75;;
25846;SDS011;13676;50.168;8.568;2022-12-19T01:03:07;64.88;;;32.35;;
25846;SDS011;13676;50.168;8.568;2022-12-19T01:05:32;59.92;;;32.35;;
25846;SDS011;13676;50.168;8.568;2022-12-19T01:07:58;64.63;;;32.42;;
25846;SDS011;13676;50.168;8.568;2022-12-19T01:10:23;59.83;;;29.20;;
25846;SDS011;13676;50.168;8.568;2022-12-19T01:12:48;56.28;;;30.35;;
25846;SDS011;13676;50.168;8.568;2022-12-19T01:15:15;53.53;;;28.45;;
25846;SDS011;13676;50.168;8.568;2022-12-19T01:17:42;57.15;;;30.25;;
25846;SDS011;13676;50.168;8.568;2022-12-19T01:20:08;62.65;;;32.08;;
25846;SDS011;13676;50.168;8.568;2022-12-19T01:22:34;65.18;;;34.05;;
25846;SDS011;13676;50.168;8.568;2022-12-19T01:24:59;58.78;;;31.10;;
25846;SDS011;13676;50.168;8.568;2022-12-19T01:27:25;54.47;;;27.50;;
25846;SDS011;13676;50.168;8.568;2022-12-19T01:29:50;53.67;;;27.77;;
25846;SDS011;13676;50.168;8.568;2022-12-19T01:32:15;64.25;;;31.02;;
25846;SDS011;13676;50.168;8.568;2022-12-19T01:34:41;53.90;;;26.05;;
25846;SDS011;13676;50.168;8.568;2022-12-19T01:37:06;59.25;;;29.63;;
25846;SDS011;13676;50.168;8.568;2022-12-19T01:39:31;49.63;;;27.77;;
25846;SDS011;13676;50.168;8.568;2022-12-19T01:41:57;58.22;;;29.73;;
25846;SDS011;13676;50.168;8.568;2022-12-19T01:44:23;59.63;;;31.92;;
25846;SDS011;13676;50.168;8.568;2022-12-19T01:46:50;50.72;;;28.92;;
25846;SDS011;13676;50.168;8.568;2022-12-19T01:51:48;55.47;;;29.30;;
25846;SDS011;13676;50.168;8.568;2022-12-19T01:54:19;57.85;;;29.88;;
25846;SDS011;13676;50.168;8.568;2022-12-19T01:56:48;54.78;;;29.63;;
25846;SDS011;13676;50.168;8.568;2022-12-19T01:59:18;55.20;;;28.13;;
25846;SDS011;13676;50.168;8.568;2022-12-19T02:01:45;54.25;;;28.95;;
25846;SDS011;13676;50.168;8.568;2022-12-19T02:04:10;58.20;;;30.15;;
25846;SDS011;13676;50.168;8.568;2022-12-19T02:06:37;58.03;;;30.98;;
25846;SDS011;13676;50.168;8.568;2022-12-19T02:09:03;52.03;;;28.60;;
25846;SDS011;13676;50.168;8.568;2022-12-19T02:11:28;59.88;;;31.92;;
25846;SDS011;13676;50.168;8.568;2022-12-19T02:13:57;51.47;;;28.73;;
25846;SDS011;13676;50.168;8.568;2022-12-19T02:16:36;54.35;;;29.00;;
25846;SDS011;13676;50.168;8.568;2022-12-19T02:30:13;56.75;;;28.73;;
25846;SDS011;13676;50.168;8.568;2022-12-19T02:35:42;52.38;;;28.85;;
25846;SDS011;13676;50.168;8.568;2022-12-19T02:41:24;48.67;;;26.07;;
25846;SDS011;13676;50.168;8.568;2022-12-19T02:43:52;52.90;;;27.67;;
25846;SDS011;13676;50.168;8.568;2022-12-19T02:46:19;61.35;;;30.48;;
25846;SDS011;13676;50.168;8.568;2022-12-19T02:48:46;53.50;;;29.73;;
25846;SDS011;13676;50.168;8.568;2022-12-19T02:51:12;59.67;;;30.75;;
25846;SDS011;13676;50.168;8.568;2022-12-19T02:53:37;56.75;;;30.55;;
25846;SDS011;13676;50.168;8.568;2022-12-19T03:06:43;60.05;;;31.42;;
25846;SDS011;13676;50.168;8.568;2022-12-19T03:09:18;62.17;;;31.23;;
25846;SDS011;13676;50.168;8.568;2022-12-19T03:11:53;59.83;;;31.08;;
25846;SDS011;13676;50.168;8.568;2022-12-19T03:14:23;62.10;;;30.80;;
25846;SDS011;13676;50.168;8.568;2022-12-19T03:16:48;58.20;;;30.83;;
25846;SDS011;13676;50.168;8.568;2022-12-19T03:19:14;62.60;;;33.60;;
25846;SDS011;13676;50.168;8.568;2022-12-19T03:21:40;66.53;;;33.65;;
25846;SDS011;13676;50.168;8.568;2022-12-19T03:24:08;65.60;;;34.58;;
25846;SDS011;13676;50.168;8.568;2022-12-19T03:26:37;62.42;;;32.53;;
25846;SDS011;13676;50.168;8.568;2022-12-19T03:29:21;60.63;;;30.42;;
25846;SDS011;13676;50.168;8.568;2022-12-19T03:31:50;67.20;;;34.38;;
25846;SDS011;13676;50.168;8.568;2022-12-19T03:34:27;66.05;;;34.22;;
25846;SDS011;13676;50.168;8.568;2022-12-19T03:36:56;56.97;;;31.45;;
25846;SDS011;13676;50.168;8.568;2022-12-19T03:39:25;67.60;;;34.85;;
25846;SDS011;13676;50.168;8.568;2022-12-19T03:41:51;58.58;;;31.25;;
25846;SDS011;13676;50.168;8.568;2022-12-19T03:44:36;59.50;;;31.17;;
25846;SDS011;13676;50.168;8.568;2022-12-19T03:49:47;59.30;;;31.00;;
25846;SDS011;13676;50.168;8.568;2022-12-19T03:57:33;60.45;;;30.38;;
25846;SDS011;13676;50.168;8.568;2022-12-19T04:00:21;52.70;;;28.25;;
25846;SDS011;13676;50.168;8.568;2022-12-19T04:02:48;53.28;;;29.42;;
25846;SDS011;13676;50.168;8.568;2022-12-19T04:05:22;61.53;;;32.28;;
25846;SDS011;13676;50.168;8.568;2022-12-19T04:07:49;61.67;;;32.00;;
25846;SDS011;13676;50.168;8.568;2022-12-19T04:10:19;57.97;;;29.73;;
25846;SDS011;13676;50.168;8.568;2022-12-19T04:12:51;59.28;;;29.88;;
25846;SDS011;13676;50.168;8.568;2022-12-19T04:15:19;56.75;;;29.02;;
25846;SDS011;13676;50.168;8.568;2022-12-19T04:17:48;57.25;;;31.02;;
25846;SDS011;13676;50.168;8.568;2022-12-19T04:20:17;52.97;;;28.38;;
25846;SDS011;13676;50.168;8.568;2022-12-19T04:25:24;53.40;;;27.85;;
25846;SDS011;13676;50.168;8.568;2022-12-19T04:27:53;57.30;;;30.88;;
25846;SDS011;13676;50.168;8.568;2022-12-19T04:30:21;64.00;;;30.75;;
25846;SDS011;13676;50.168;8.568;2022-12-19T04:32:46;58.55;;;29.98;;
25846;SDS011;13676;50.168;8.568;2022-12-19T04:35:14;59.70;;;31.27;;
25846;SDS011;13676;50.168;8.568;2022-12-19T04:37:39;57.40;;;29.48;;
25846;SDS011;13676;50.168;8.568;2022-12-19T04:40:05;55.35;;;29.55;;
25846;SDS011;13676;50.168;8.568;2022-12-19T04:42:32;57.60;;;28.90;;
25846;SDS011;13676;50.168;8.568;2022-12-19T04:44:57;55.33;;;30.90;;
25846;SDS011;13676;50.168;8.568;2022-12-19T04:47:23;61.72;;;31.73;;
25846;SDS011;13676;50.168;8.568;2022-12-19T04:49:48;52.33;;;28.42;;
25846;SDS011;13676;50.168;8.568;2022-12-19T04:52:14;60.03;;;32.78;;
25846;SDS011;13676;50.168;8.568;2022-12-19T04:54:39;50.58;;;28.90;;
25846;SDS011;13676;50.168;8.568;2022-12-19T04:57:04;58.83;;;32.25;;
25846;SDS011;13676;50.168;8.568;2022-12-19T04:59:30;63.40;;;32.58;;
25846;SDS011;13676;50.168;8.568;2022-12-19T05:01:55;52.67;;;29.02;;
25846;SDS011;13676;50.168;8.568;2022-12-19T05:04:21;59.17;;;30.38;;
25846;SDS011;13676;50.168;8.568;2022-12-19T05:06:46;56.38;;;29.92;;
25846;SDS011;13676;50.168;8.568;2022-12-19T05:09:11;55.28;;;29.85;;
25846;SDS011;13676;50.168;8.568;2022-12-19T05:11:37;54.60;;;28.83;;
25846;SDS011;13676;50.168;8.568;2022-12-19T05:14:02;55.45;;;28.98;;
25846;SDS011;13676;50.168;8.568;2022-12-19T05:16:28;57.33;;;30.85;;
25846;SDS011;13676;50.168;8.568;2022-12-19T05:18:54;52.42;;;28.02;;
25846;SDS011;13676;50.168;8.568;2022-12-19T05:21:19;61.63;;;32.30;;
25846;SDS011;13676;50.168;8.568;2022-12-19T05:23:45;63.53;;;34.05;;
25846;SDS011;13676;50.168;8.568;2022-12-19T05:26:11;58.80;;;31.85;;
25846;SDS011;13676;50.168;8.568;2022-12-19T05:28:37;61.97;;;33.50;;
25846;SDS011;13676;50.168;8.568;2022-12-19T05:31:06;67.35;;;35.58;;
25846;SDS011;13676;50.168;8.568;2022-12-19T05:33:33;62.88;;;34.58;;
25846;SDS011;13676;50.168;8.568;2022-12-19T05:35:59;72.40;;;34.35;;
25846;SDS011;13676;50.168;8.568;2022-12-19T05:38:25;73.32;;;35.45;;
25846;SDS011;13676;50.168;8.568;2022-12-19T05:40:51;63.33;;;33.25;;
25846;SDS011;13676;50.168;8.568;2022-12-19T05:43:16;65.38;;;35.35;;
25846;SDS011;13676;50.168;8.568;2022-12-19T05:45:41;67.30;;;33.88;;
25846;SDS011;13676;50.168;8.568;2022-12-19T05:48:07;61.53;;;31.63;;
25846;SDS011;13676;50.168;8.568;2022-12-19T05:50:32;59.63;;;31.90;;
25846;SDS011;13676;50.168;8.568;2022-12-19T05:52:57;62.03;;;32.33;;
25846;SDS011;13676;50.168;8.568;2022-12-19T05:55:23;57.45;;;31.30;;
25846;SDS011;13676;50.168;8.568;2022-12-19T05:57:48;76.40;;;37.67;;
25846;SDS011;13676;50.168;8.568;2022-12-19T06:00:13;78.15;;;39.55;;
25846;SDS011;13676;50.168;8.568;2022-12-19T06:02:40;67.95;;;36.60;;
25846;SDS011;13676;50.168;8.568;2022-12-19T06:05:05;64.32;;;33.67;;
25846;SDS011;13676;50.168;8.568;2022-12-19T06:07:31;60.58;;;31.58;;
25846;SDS011;13676;50.168;8.568;2022-12-19T06:09:56;69.90;;;36.42;;
25846;SDS011;13676;50.168;8.568;2022-12-19T06:12:22;64.05;;;33.55;;
25846;SDS011;13676;50.168;8.568;2022-12-19T06:14:47;59.80;;;32.95;;
25846;SDS011;13676;50.168;8.568;2022-12-19T06:17:13;61.08;;;32.70;;
25846;SDS011;13676;50.168;8.568;2022-12-19T06:19:38;60.78;;;33.08;;
25846;SDS011;13676;50.168;8.568;2022-12-19T06:22:03;65.45;;;34.22;;
25846;SDS011;13676;50.168;8.568;2022-12-19T06:24:28;61.20;;;33.05;;
25846;SDS011;13676;50.168;8.568;2022-12-19T06:26:54;61.70;;;32.65;;
25846;SDS011;13676;50.168;8.568;2022-12-19T06:29:19;61.30;;;31.27;;
25846;SDS011;13676;50.168;8.568;2022-12-19T06:31:45;57.42;;;31.15;;
25846;SDS011;13676;50.168;8.568;2022-12-19T06:34:10;60.60;;;32.83;;
25846;SDS011;13676;50.168;8.568;2022-12-19T06:36:35;65.50;;;33.33;;
25846;SDS011;13676;50.168;8.568;2022-12-19T06:39:01;60.63;;;30.42;;
25846;SDS011;13676;50.168;8.568;2022-12-19T06:41:28;62.60;;;31.43;;
25846;SDS011;13676;50.168;8.568;2022-12-19T06:44:12;60.97;;;31.02;;
25846;SDS011;13676;50.168;8.568;2022-12-19T06:46:39;55.85;;;31.38;;
25846;SDS011;13676;50.168;8.568;2022-12-19T06:49:05;60.15;;;31.23;;
25846;SDS011;13676;50.168;8.568;2022-12-19T06:51:31;58.35;;;30.90;;
25846;SDS011;13676;50.168;8.568;2022-12-19T06:53:57;63.92;;;32.28;;
25846;SDS011;13676;50.168;8.568;2022-12-19T06:56:22;63.90;;;33.10;;
25846;SDS011;13676;50.168;8.568;2022-12-19T06:58:48;66.10;;;33.28;;
25846;SDS011;13676;50.168;8.568;2022-12-19T07:03:48;62.00;;;32.65;;
25846;SDS011;13676;50.168;8.568;2022-12-19T07:06:14;64.18;;;33.15;;
25846;SDS011;13676;50.168;8.568;2022-12-19T07:08:39;67.32;;;33.47;;
25846;SDS011;13676;50.168;8.568;2022-12-19T07:11:04;59.50;;;29.80;;
25846;SDS011;13676;50.168;8.568;2022-12-19T07:13:30;59.28;;;32.50;;
25846;SDS011;13676;50.168;8.568;2022-12-19T07:15:56;68.57;;;32.70;;
25846;SDS011;13676;50.168;8.568;2022-12-19T07:18:24;73.82;;;37.63;;
25846;SDS011;13676;50.168;8.568;2022-12-19T07:20:49;77.22;;;39.78;;
25846;SDS011;13676;50.168;8.568;2022-12-19T07:23:16;132.50;;;63.90;;
25846;SDS011;13676;50.168;8.568;2022-12-19T07:25:44;124.43;;;57.53;;
25846;SDS011;13676;50.168;8.568;2022-12-19T07:28:09;135.52;;;65.25;;
25846;SDS011;13676;50.168;8.568;2022-12-19T07:30:34;106.93;;;51.17;;
25846;SDS011;13676;50.168;8.568;2022-12-19T07:33:00;93.20;;;46.63;;
25846;SDS011;13676;50.168;8.568;2022-12-19T07:35:25;84.68;;;41.03;;
25846;SDS011;13676;50.168;8.568;2022-12-19T07:37:51;80.05;;;38.20;;
25846;SDS011;13676;50.168;8.568;2022-12-19T07:40:16;76.90;;;37.10;;
25846;SDS011;13676;50.168;8.568;2022-12-19T07:42:42;69.35;;;34.45;;
25846;SDS011;13676;50.168;8.568;2022-12-19T07:45:08;64.47;;;35.40;;
25846;SDS011;13676;50.168;8.568;2022-12-19T07:47:34;61.83;;;32.95;;
25846;SDS011;13676;50.168;8.568;2022-12-19T07:50:00;67.22;;;33.00;;
25846;SDS011;13676;50.168;8.568;2022-12-19T07:52:25;60.85;;;33.10;;
25846;SDS011;13676;50.168;8.568;2022-12-19T07:54:51;65.03;;;32.80;;
25846;SDS011;13676;50.168;8.568;2022-12-19T07:57:16;59.70;;;31.80;;
25846;SDS011;13676;50.168;8.568;2022-12-19T07:59:43;50.88;;;28.85;;
25846;SDS011;13676;50.168;8.568;2022-12-19T08:02:08;61.80;;;32.05;;
25846;SDS011;13676;50.168;8.568;2022-12-19T08:04:34;58.50;;;31.27;;
25846;SDS011;13676;50.168;8.568;2022-12-19T08:06:59;55.53;;;30.40;;
25846;SDS011;13676;50.168;8.568;2022-12-19T08:09:26;51.80;;;29.13;;
25846;SDS011;13676;50.168;8.568;2022-12-19T08:11:52;68.18;;;35.00;;
25846;SDS011;13676;50.168;8.568;2022-12-19T08:14:18;63.15;;;32.28;;
25846;SDS011;13676;50.168;8.568;2022-12-19T08:16:43;59.30;;;30.83;;
25846;SDS011;13676;50.168;8.568;2022-12-19T08:19:08;58.35;;;31.30;;
25846;SDS011;13676;50.168;8.568;2022-12-19T08:21:34;54.47;;;30.38;;
25846;SDS011;13676;50.168;8.568;2022-12-19T08:23:59;70.20;;;35.03;;
25846;SDS011;13676;50.168;8.568;2022-12-19T08:26:25;79.75;;;40.83;;
25846;SDS011;13676;50.168;8.568;2022-12-19T08:28:51;88.93;;;47.60;;
25846;SDS011;13676;50.168;8.568;2022-12-19T08:31:18;84.50;;;43.38;;
25846;SDS011;13676;50.168;8.568;2022-12-19T08:33:44;75.70;;;40.97;;
25846;SDS011;13676;50.168;8.568;2022-12-19T08:36:14;69.90;;;37.50;;
25846;SDS011;13676;50.168;8.568;2022-12-19T08:38:42;64.47;;;34.42;;
25846;SDS011;13676;50.168;8.568;2022-12-19T08:41:08;62.75;;;34.45;;
25846;SDS011;13676;50.168;8.568;2022-12-19T08:43:33;63.75;;;36.05;;
25846;SDS011;13676;50.168;8.568;2022-12-19T08:45:59;62.00;;;34.63;;
25846;SDS011;13676;50.168;8.568;2022-12-19T08:48:24;64.88;;;34.38;;
25846;SDS011;13676;50.168;8.568;2022-12-19T08:50:54;57.08;;;30.25;;
25846;SDS011;13676;50.168;8.568;2022-12-19T08:53:28;60.13;;;29.85;;
25846;SDS011;13676;50.168;8.568;2022-12-19T08:55:57;42.50;;;23.80;;
25846;SDS011;13676;50.168;8.568;2022-12-19T08:58:24;65.97;;;32.22;;
25846;SDS011;13676;50.168;8.568;2022-12-19T09:00:50;60.03;;;30.88;;
25846;SDS011;13676;50.168;8.568;2022-12-19T09:03:20;54.95;;;29.33;;
25846;SDS011;13676;50.168;8.568;2022-12-19T09:05:46;81.32;;;41.00;;
25846;SDS011;13676;50.168;8.568;2022-12-19T09:08:22;80.70;;;40.17;;
25846;SDS011;13676;50.168;8.568;2022-12-19T09:10:48;70.85;;;36.50;;
25846;SDS011;13676;50.168;8.568;2022-12-19T09:13:13;65.45;;;34.92;;
25846;SDS011;13676;50.168;8.568;2022-12-19T09:15:39;71.97;;;37.65;;
25846;SDS011;13676;50.168;8.568;2022-12-19T09:18:05;65.82;;;34.78;;
25846;SDS011;13676;50.168;8.568;2022-12-19T09:20:30;67.40;;;35.40;;
25846;SDS011;13676;50.168;8.568;2022-12-19T09:22:56;65.22;;;33.50;;
25846;SDS011;13676;50.168;8.568;2022-12-19T09:25:21;67.20;;;32.60;;
25846;SDS011;13676;50.168;8.568;2022-12-19T09:27:47;86.13;;;42.58;;
25846;SDS011;13676;50.168;8.568;2022-12-19T09:30:12;74.18;;;37.25;;
25846;SDS011;13676;50.168;8.568;2022-12-19T09:32:38;66.95;;;36.22;;
25846;SDS011;13676;50.168;8.568;2022-12-19T09:35:04;64.55;;;35.10;;
25846;SDS011;13676;50.168;8.568;2022-12-19T09:37:29;71.72;;;36.17;;
25846;SDS011;13676;50.168;8.568;2022-12-19T09:39:55;68.93;;;36.60;;
25846;SDS011;13676;50.168;8.568;2022-12-19T09:48:02;81.43;;;41.03;;
25846;SDS011;13676;50.168;8.568;2022-12-19T09:53:14;80.60;;;42.53;;
25846;SDS011;13676;50.168;8.568;2022-12-19T09:55:43;70.65;;;38.53;;
25846;SDS011;13676;50.168;8.568;2022-12-19T09:58:11;66.10;;;35.53;;
25846;SDS011;13676;50.168;8.568;2022-12-19T10:00:48;60.30;;;34.25;;
25846;SDS011;13676;50.168;8.568;2022-12-19T10:03:19;65.00;;;34.70;;
25846;SDS011;13676;50.168;8.568;2022-12-19T10:05:51;60.17;;;32.63;;
25846;SDS011;13676;50.168;8.568;2022-12-19T10:22:18;55.90;;;29.55;;
25846;SDS011;13676;50.168;8.568;2022-12-19T10:25:02;64.22;;;31.80;;
25846;SDS011;13676;50.168;8.568;2022-12-19T10:27:43;60.00;;;31.25;;
25846;SDS011;13676;50.168;8.568;2022-12-19T10:32:55;66.80;;;33.83;;
25846;SDS011;13676;50.168;8.568;2022-12-19T10:35:30;59.53;;;31.75;;
25846;SDS011;13676;50.168;8.568;2022-12-19T10:41:09;61.58;;;33.08;;
25846;SDS011;13676;50.168;8.568;2022-12-19T10:46:17;63.00;;;32.38;;
25846;SDS011;13676;50.168;8.568;2022-12-19T10:48:46;68.28;;;34.58;;
25846;SDS011;13676;50.168;8.568;2022-12-19T10:51:12;73.00;;;34.43;;
25846;SDS011;13676;50.168;8.568;2022-12-19T10:53:51;65.80;;;33.78;;
25846;SDS011;13676;50.168;8.568;2022-12-19T10:56:23;68.90;;;33.78;;
25846;SDS011;13676;50.168;8.568;2022-12-19T10:58:51;66.57;;;32.75;;
25846;SDS011;13676;50.168;8.568;2022-12-19T11:03:51;66.45;;;31.17;;
25846;SDS011;13676;50.168;8.568;2022-12-19T11:06:42;59.65;;;29.50;;
25846;SDS011;13676;50.168;8.568;2022-12-19T11:11:43;65.60;;;32.80;;
25846;SDS011;13676;50.168;8.568;2022-12-19T11:14:22;59.00;;;30.67;;
25846;SDS011;13676;50.168;8.568;2022-12-19T11:16:49;60.65;;;32.10;;
25846;SDS011;13676;50.168;8.568;2022-12-19T11:19:34;69.63;;;33.88;;
25846;SDS011;13676;50.168;8.568;2022-12-19T11:22:05;48.92;;;24.75;;
25846;SDS011;13676;50.168;8.568;2022-12-19T11:24:42;56.95;;;31.23;;
25846;SDS011;13676;50.168;8.568;2022-12-19T11:27:45;54.33;;;29.88;;
25846;SDS011;13676;50.168;8.568;2022-12-19T11:30:25;67.55;;;32.97;;
25846;SDS011;13676;50.168;8.568;2022-12-19T11:33:07;58.90;;;30.90;;
25846;SDS011;13676;50.168;8.568;2022-12-19T11:36:10;66.28;;;36.15;;
25846;SDS011;13676;50.168;8.568;2022-12-19T11:38:34;61.42;;;32.97;;
25846;SDS011;13676;50.168;8.568;2022-12-19T11:41:10;61.63;;;32.47;;
25846;SDS011;13676;50.168;8.568;2022-12-19T11:49:55;65.03;;;35.75;;
25846;SDS011;13676;50.168;8.568;2022-12-19T11:52:34;61.33;;;35.65;;
25846;SDS011;13676;50.168;8.568;2022-12-19T11:55:04;67.40;;;35.15;;
25846;SDS011;13676;50.168;8.568;2022-12-19T11:57:31;62.20;;;34.95;;
25846;SDS011;13676;50.168;8.568;2022-12-19T11:59:56;66.88;;;34.13;;
25846;SDS011;13676;50.168;8.568;2022-12-19T12:02:45;58.00;;;31.48;;
25846;SDS011;13676;50.168;8.568;2022-12-19T12:05:32;64.07;;;34.65;;
25846;SDS011;13676;50.168;8.568;2022-12-19T12:11:00;64.10;;;35.30;;
25846;SDS011;13676;50.168;8.568;2022-12-19T12:16:35;57.15;;;32.15;;
25846;SDS011;13676;50.168;8.568;2022-12-19T12:20:10;61.20;;;32.60;;
25846;SDS011;13676;50.168;8.568;2022-12-19T12:25:07;57.95;;;32.25;;
25846;SDS011;13676;50.168;8.568;2022-12-19T12:30:44;54.85;;;30.67;;
25846;SDS011;13676;50.168;8.568;2022-12-19T12:36:04;56.17;;;31.50;;
25846;SDS011;13676;50.168;8.568;2022-12-19T12:44:34;61.15;;;32.22;;
25846;SDS011;13676;50.168;8.568;2022-12-19T12:49:42;55.60;;;31.02;;
25846;SDS011;13676;50.168;8.568;2022-12-19T12:52:12;58.72;;;30.77;;
25846;SDS011;13676;50.168;8.568;2022-12-19T12:54:43;56.17;;;30.67;;
25846;SDS011;13676;50.168;8.568;2022-12-19T12:57:20;60.97;;;32.60;;
25846;SDS011;13676;50.168;8.568;2022-12-19T13:08:01;61.95;;;32.47;;
25846;SDS011;13676;50.168;8.568;2022-12-19T13:10:54;53.58;;;30.40;;
25846;SDS011;13676;50.168;8.568;2022-12-19T13:13:20;58.42;;;31.23;;
25846;SDS011;13676;50.168;8.568;2022-12-19T13:24:27;54.60;;;30.15;;
25846;SDS011;13676;50.168;8.568;2022-12-19T13:32:25;63.20;;;34.20;;
25846;SDS011;13676;50.168;8.568;2022-12-19T13:37:25;55.67;;;31.23;;
25846;SDS011;13676;50.168;8.568;2022-12-19T13:42:21;63.63;;;32.92;;
25846;SDS011;13676;50.168;8.568;2022-12-19T13:45:28;60.45;;;31.85;;
25846;SDS011;13676;50.168;8.568;2022-12-19T13:47:56;79.78;;;36.67;;
25846;SDS011;13676;50.168;8.568;2022-12-19T13:53:00;75.80;;;36.25;;
25846;SDS011;13676;50.168;8.568;2022-12-19T13:55:29;72.10;;;36.53;;
25846;SDS011;13676;50.168;8.568;2022-12-19T13:57:54;70.97;;;35.38;;
25846;SDS011;13676;50.168;8.568;2022-12-19T14:00:21;60.03;;;32.65;;
25846;SDS011;13676;50.168;8.568;2022-12-19T14:02:58;57.10;;;32.85;;
25846;SDS011;13676;50.168;8.568;2022-12-19T14:05:31;68.78;;;35.50;;
25846;SDS011;13676;50.168;8.568;2022-12-19T14:07:58;69.95;;;37.55;;
25846;SDS011;13676;50.168;8.568;2022-12-19T14:10:27;63.45;;;35.65;;
25846;SDS011;13676;50.168;8.568;2022-12-19T14:12:54;64.55;;;36.13;;
25846;SDS011;13676;50.168;8.568;2022-12-19T14:15:43;71.65;;;37.50;;
25846;SDS011;13676;50.168;8.568;2022-12-19T14:20:40;69.80;;;36.85;;
25846;SDS011;13676;50.168;8.568;2022-12-19T14:23:06;75.55;;;39.60;;
25846;SDS011;13676;50.168;8.568;2022-12-19T14:30:37;59.50;;;31.92;;
25846;SDS011;13676;50.168;8.568;2022-12-19T14:33:10;62.17;;;32.63;;
25846;SDS011;13676;50.168;8.568;2022-12-19T14:35:43;56.78;;;32.10;;
25846;SDS011;13676;50.168;8.568;2022-12-19T14:38:11;59.92;;;33.03;;
25846;SDS011;13676;50.168;8.568;2022-12-19T14:40:40;58.35;;;31.52;;
25846;SDS011;13676;50.168;8.568;2022-12-19T14:48:51;52.55;;;29.85;;
25846;SDS011;13676;50.168;8.568;2022-12-19T14:54:22;58.85;;;30.75;;
25846;SDS011;13676;50.168;8.568;2022-12-19T14:56:49;58.85;;;32.53;;
25846;SDS011;13676;50.168;8.568;2022-12-19T14:59:26;65.20;;;32.03;;
25846;SDS011;13676;50.168;8.568;2022-12-19T15:04:31;70.20;;;36.83;;
25846;SDS011;13676;50.168;8.568;2022-12-19T15:06:58;76.00;;;42.97;;
25846;SDS011;13676;50.168;8.568;2022-12-19T15:09:26;80.80;;;43.78;;
25846;SDS011;13676;50.168;8.568;2022-12-19T15:11:57;73.00;;;38.88;;
25846;SDS011;13676;50.168;8.568;2022-12-19T15:15:18;70.15;;;38.35;;
25846;SDS011;13676;50.168;8.568;2022-12-19T15:17:44;79.60;;;43.05;;
25846;SDS011;13676;50.168;8.568;2022-12-19T15:22:37;74.75;;;39.70;;
25846;SDS011;13676;50.168;8.568;2022-12-19T15:25:02;69.32;;;37.42;;
25846;SDS011;13676;50.168;8.568;2022-12-19T15:27:28;70.07;;;39.30;;
25846;SDS011;13676;50.168;8.568;2022-12-19T15:29:53;73.43;;;39.80;;
25846;SDS011;13676;50.168;8.568;2022-12-19T15:32:18;70.82;;;39.60;;
25846;SDS011;13676;50.168;8.568;2022-12-19T15:34:45;64.47;;;37.22;;
25846;SDS011;13676;50.168;8.568;2022-12-19T15:37:11;63.22;;;34.55;;
25846;SDS011;13676;50.168;8.568;2022-12-19T15:39:38;67.82;;;35.38;;
25846;SDS011;13676;50.168;8.568;2022-12-19T15:42:05;63.50;;;34.17;;
25846;SDS011;13676;50.168;8.568;2022-12-19T15:44:40;63.20;;;34.47;;
25846;SDS011;13676;50.168;8.568;2022-12-19T15:47:06;57.95;;;33.00;;
25846;SDS011;13676;50.168;8.568;2022-12-19T15:49:42;57.08;;;31.77;;
25846;SDS011;13676;50.168;8.568;2022-12-19T15:52:17;61.70;;;32.63;;
25846;SDS011;13676;50.168;8.568;2022-12-19T15:54:43;60.08;;;31.42;;
25846;SDS011;13676;50.168;8.568;2022-12-19T15:57:15;59.17;;;32.65;;
25846;SDS011;13676;50.168;8.568;2022-12-19T15:59:44;58.45;;;31.10;;
25846;SDS011;13676;50.168;8.568;2022-12-19T16:02:30;55.38;;;32.15;;
25846;SDS011;13676;50.168;8.568;2022-12-19T16:04:55;65.60;;;35.13;;
25846;SDS011;13676;50.168;8.568;2022-12-19T16:07:21;61.55;;;32.92;;
25846;SDS011;13676;50.168;8.568;2022-12-19T16:09:47;57.10;;;31.83;;
25846;SDS011;13676;50.168;8.568;2022-12-19T16:12:13;55.15;;;32.05;;
25846;SDS011;13676;50.168;8.568;2022-12-19T16:14:41;51.25;;;30.92;;
25846;SDS011;13676;50.168;8.568;2022-12-19T16:17:10;59.63;;;33.13;;
25846;SDS011;13676;50.168;8.568;2022-12-19T16:19:39;55.92;;;31.05;;
25846;SDS011;13676;50.168;8.568;2022-12-19T16:22:14;50.55;;;30.33;;
25846;SDS011;13676;50.168;8.568;2022-12-19T16:24:42;59.42;;;30.73;;
25846;SDS011;13676;50.168;8.568;2022-12-19T16:27:08;51.70;;;28.90;;
25846;SDS011;13676;50.168;8.568;2022-12-19T16:29:34;67.10;;;34.70;;
25846;SDS011;13676;50.168;8.568;2022-12-19T16:32:00;60.45;;;32.30;;
25846;SDS011;13676;50.168;8.568;2022-12-19T16:34:26;52.53;;;30.45;;
25846;SDS011;13676;50.168;8.568;2022-12-19T16:36:52;63.30;;;32.47;;
25846;SDS011;13676;50.168;8.568;2022-12-19T16:39:18;50.17;;;29.75;;
25846;SDS011;13676;50.168;8.568;2022-12-19T16:41:43;51.63;;;27.65;;
25846;SDS011;13676;50.168;8.568;2022-12-19T16:44:16;56.05;;;30.70;;
25846;SDS011;13676;50.168;8.568;2022-12-19T16:46:43;50.47;;;29.13;;
25846;SDS011;13676;50.168;8.568;2022-12-19T16:49:13;55.63;;;31.52;;
25846;SDS011;13676;50.168;8.568;2022-12-19T16:51:40;56.15;;;32.35;;
25846;SDS011;13676;50.168;8.568;2022-12-19T16:54:06;52.90;;;31.23;;
25846;SDS011;13676;50.168;8.568;2022-12-19T16:56:33;53.72;;;30.25;;
25846;SDS011;13676;50.168;8.568;2022-12-19T17:01:25;48.05;;;26.92;;
25846;SDS011;13676;50.168;8.568;2022-12-19T17:03:51;64.50;;;33.30;;
25846;SDS011;13676;50.168;8.568;2022-12-19T17:06:18;51.42;;;29.60;;
25846;SDS011;13676;50.168;8.568;2022-12-19T17:08:44;62.55;;;34.72;;
25846;SDS011;13676;50.168;8.568;2022-12-19T17:11:17;57.55;;;32.22;;
25846;SDS011;13676;50.168;8.568;2022-12-19T17:13:46;54.17;;;31.52;;